Time;durP1;ratioP1;P1;durP2;ratioP2;P2;SDS_P1;SDS_P2;PMS_P1;PMS_P2;Temp;Humidity;BMP_temperature;BMP_pressure;BME280_temperature;BME280_humidity;BME280_pressure;Samples;Min_cycle;Max_cycle;Signal;HPM_P1;HPM_P2
2021/01/24 00:00:54;;;;;;;27.10;15.57;;;;;;;-1.18;100.00;94146.06;5004510;28;20492;-47
2021/01/24 00:03:22;;;;;;;22.95;15.27;;;;;;;-1.09;100.00;94141.91;4992694;28;20384;-45
2021/01/24 00:05:50;;;;;;;22.40;14.27;;;;;;;-1.03;100.00;94149.13;5009272;28;20042;-47
2021/01/24 00:08:17;;;;;;;20.98;13.82;;;;;;;-1.07;100.00;94137.38;5009782;28;20153;-47
2021/01/24 00:10:45;;;;;;;20.77;12.45;;;;;;;-1.11;100.00;94143.78;5006681;28;20405;-45
2021/01/24 00:13:12;;;;;;;17.50;11.25;;;;;;;-1.14;100.00;94149.22;5002546;28;20488;-46
2021/01/24 00:15:39;;;;;;;20.23;12.20;;;;;;;-1.01;100.00;94149.81;5008681;28;20566;-55
2021/01/24 00:18:07;;;;;;;19.35;12.15;;;;;;;-0.90;100.00;94152.28;5009313;28;20046;-47
2021/01/24 00:20:33;;;;;;;20.45;13.23;;;;;;;-0.89;100.00;94147.94;5003287;28;20034;-46
2021/01/24 00:23:00;;;;;;;21.65;12.82;;;;;;;-0.73;100.00;94156.81;5009078;28;20050;-48
2021/01/24 00:25:27;;;;;;;24.10;14.20;;;;;;;-0.63;100.00;94145.66;4989716;28;21763;-48
2021/01/24 00:27:55;;;;;;;24.50;14.60;;;;;;;-0.70;100.00;94167.84;5005424;28;20077;-45
2021/01/24 00:30:23;;;;;;;20.40;13.02;;;;;;;-0.70;100.00;94179.03;5008042;28;20108;-47
2021/01/24 00:32:50;;;;;;;24.02;14.00;;;;;;;-0.66;100.00;94193.31;5008910;28;20089;-48
2021/01/24 00:35:17;;;;;;;20.75;11.85;;;;;;;-0.92;100.00;94199.94;4985656;28;20053;-46
2021/01/24 00:37:44;;;;;;;18.58;11.80;;;;;;;-0.80;100.00;94198.88;5003659;28;20038;-44
2021/01/24 00:40:12;;;;;;;19.90;11.35;;;;;;;-0.60;100.00;94197.16;5006511;28;20050;-45
2021/01/24 00:42:39;;;;;;;17.88;10.50;;;;;;;-0.54;100.00;94197.44;5006835;28;20046;-47
2021/01/24 00:45:08;;;;;;;17.85;10.93;;;;;;;-0.39;100.00;94184.94;4985814;28;20112;-45
2021/01/24 00:47:38;;;;;;;17.25;9.98;;;;;;;-0.26;100.00;94195.03;5004312;28;20046;-46
2021/01/24 00:50:06;;;;;;;18.38;10.55;;;;;;;-0.17;100.00;94196.84;4991092;28;20334;-45
2021/01/24 00:52:33;;;;;;;16.40;10.48;;;;;;;-0.10;100.00;94189.34;5006052;28;20050;-45
2021/01/24 00:55:00;;;;;;;18.10;11.27;;;;;;;-0.07;100.00;94187.28;4991589;28;20042;-46
2021/01/24 00:57:28;;;;;;;14.95;10.32;;;;;;;-0.08;100.00;94201.19;4990685;28;20049;-50
2021/01/24 00:59:55;;;;;;;17.23;10.63;;;;;;;-0.05;100.00;94193.13;5006954;28;20528;-45
2021/01/24 01:02:22;;;;;;;18.33;11.23;;;;;;;0.00;100.00;94192.75;4987180;28;20053;-45
2021/01/24 01:04:50;;;;;;;33.20;17.58;;;;;;;0.06;100.00;94192.19;4989303;28;20049;-48
2021/01/24 01:07:17;;;;;;;18.38;11.18;;;;;;;-0.05;100.00;94179.38;5005584;28;20065;-48
2021/01/24 01:09:44;;;;;;;17.00;9.85;;;;;;;-0.11;100.00;94177.31;4983029;28;20053;-48
2021/01/24 01:12:11;;;;;;;17.13;9.38;;;;;;;-0.04;100.00;94175.81;4996749;28;20081;-50
2021/01/24 01:14:38;;;;;;;16.75;10.55;;;;;;;-0.07;100.00;94171.75;4974371;28;20423;-47
2021/01/24 01:17:05;;;;;;;17.33;10.88;;;;;;;0.01;100.00;94183.19;4987532;28;20118;-47
2021/01/24 01:19:32;;;;;;;18.35;11.38;;;;;;;-0.05;100.00;94169.00;5005515;28;20523;-46
2021/01/24 01:22:00;;;;;;;15.57;10.25;;;;;;;-0.05;100.00;94177.59;5002776;28;20120;-48
2021/01/24 01:24:27;;;;;;;17.90;11.80;;;;;;;-0.04;100.00;94168.84;5006559;28;20034;-46
2021/01/24 01:26:55;;;;;;;15.65;10.07;;;;;;;-0.05;100.00;94159.47;5006962;28;20539;-45
2021/01/24 01:29:22;;;;;;;14.90;10.13;;;;;;;-0.01;100.00;94154.81;5004378;28;20042;-48
2021/01/24 01:31:49;;;;;;;16.30;10.63;;;;;;;-0.07;100.00;94165.72;5005272;28;20057;-47
2021/01/24 01:34:17;;;;;;;16.67;11.75;;;;;;;-0.12;100.00;94166.16;4999909;28;20440;-48
2021/01/24 01:36:44;;;;;;;19.25;11.38;;;;;;;-0.25;100.00;94171.59;5002784;28;20056;-48
2021/01/24 01:39:12;;;;;;;15.38;10.02;;;;;;;-0.25;100.00;94168.19;4986433;28;20294;-47
2021/01/24 01:41:39;;;;;;;17.83;9.55;;;;;;;-0.29;100.00;94175.41;5007253;28;20072;-46
2021/01/24 01:44:07;;;;;;;16.70;9.68;;;;;;;-0.22;100.00;94180.88;4976504;28;20081;-46
2021/01/24 01:46:34;;;;;;;15.95;8.73;;;;;;;-0.16;100.00;94187.28;5004727;28;20049;-47
2021/01/24 01:49:01;;;;;;;12.07;7.97;;;;;;;-0.21;100.00;94185.09;5001134;28;20042;-46
2021/01/24 01:51:28;;;;;;;12.32;7.20;;;;;;;-0.22;100.00;94191.22;5008212;28;20049;-46
2021/01/24 01:53:56;;;;;;;11.90;8.15;;;;;;;-0.27;100.00;94180.47;5001820;28;20128;-48
2021/01/24 01:56:25;;;;;;;13.30;7.88;;;;;;;-0.33;100.00;94187.00;4993676;28;20045;-48
2021/01/24 01:58:52;;;;;;;14.10;8.57;;;;;;;-0.10;100.00;94189.34;4985174;28;20046;-45
2021/01/24 02:01:28;;;;;;;12.73;8.10;;;;;;;-0.03;100.00;94188.66;5007369;28;20053;-45
2021/01/24 02:04:04;;;;;;;14.77;9.27;;;;;;;0.03;100.00;94191.63;5002534;28;20085;-45
2021/01/24 02:06:34;;;;;;;14.18;9.50;;;;;;;0.03;100.00;94197.63;5008424;28;20050;-45
2021/01/24 02:09:08;;;;;;;14.52;10.00;;;;;;;0.04;100.00;94188.94;4990057;28;20046;-46
2021/01/24 02:11:42;;;;;;;11.70;7.25;;;;;;;0.11;100.00;94192.59;5003727;28;20069;-45
2021/01/24 02:14:16;;;;;;;15.18;8.52;;;;;;;0.40;100.00;94189.97;5002185;28;20057;-46
2021/01/24 02:16:44;;;;;;;15.40;9.02;;;;;;;0.60;100.00;94200.31;5004168;28;20049;-48
2021/01/24 02:19:20;;;;;;;15.23;9.75;;;;;;;0.55;100.00;94205.09;5004632;28;20049;-44
2021/01/24 02:21:47;;;;;;;16.35;9.95;;;;;;;0.63;100.00;94211.22;5007283;28;20046;-45
2021/01/24 02:24:15;;;;;;;14.10;9.50;;;;;;;0.60;100.00;94200.31;5005914;28;20252;-47
2021/01/24 02:26:51;;;;;;;12.60;7.90;;;;;;;0.75;100.00;94193.72;5003035;28;20069;-46
2021/01/24 02:29:22;;;;;;;11.68;7.22;;;;;;;1.02;100.00;94189.53;4992692;28;20507;-46
2021/01/24 02:31:50;;;;;;;9.75;6.88;;;;;;;0.79;100.00;94187.31;4986761;28;20049;-46
2021/01/24 02:34:20;;;;;;;9.23;6.03;;;;;;;0.57;100.00;94190.22;4987463;28;20571;-45
2021/01/24 02:36:48;;;;;;;9.68;6.47;;;;;;;0.35;100.00;94189.59;4971779;28;20105;-46
2021/01/24 02:39:18;;;;;;;10.13;6.00;;;;;;;0.27;100.00;94183.44;5004261;28;20038;-49
2021/01/24 02:41:45;;;;;;;10.05;6.57;;;;;;;0.16;100.00;94187.81;5002194;28;20057;-49
2021/01/24 02:44:12;;;;;;;8.40;5.47;;;;;;;0.28;100.00;94190.28;5005005;28;20046;-47
2021/01/24 02:46:40;;;;;;;7.32;5.57;;;;;;;0.40;100.00;94186.56;5002335;28;20525;-45
2021/01/24 02:49:08;;;;;;;6.70;4.65;;;;;;;0.51;100.00;94186.41;5005415;28;20056;-46
2021/01/24 02:51:35;;;;;;;6.20;4.07;;;;;;;0.57;100.00;94185.84;5005107;28;20129;-45
2021/01/24 02:54:03;;;;;;;5.63;3.80;;;;;;;0.64;100.00;94183.50;4986233;28;20085;-45
2021/01/24 02:56:31;;;;;;;3.92;3.00;;;;;;;0.60;100.00;94193.34;4969523;28;20042;-46
2021/01/24 02:58:58;;;;;;;5.00;2.88;;;;;;;0.60;100.00;94198.53;5002902;28;20042;-47
2021/01/24 03:01:25;;;;;;;3.40;2.00;;;;;;;0.57;100.00;94196.22;4977919;28;20116;-48
2021/01/24 03:03:53;;;;;;;2.95;2.03;;;;;;;0.57;100.00;94185.84;5011607;28;20474;-45
2021/01/24 03:06:21;;;;;;;2.35;1.77;;;;;;;0.50;100.00;94189.16;5008263;28;20432;-46
2021/01/24 03:08:48;;;;;;;2.72;1.90;;;;;;;0.42;100.00;94197.63;5008312;28;20050;-43
2021/01/24 03:11:17;;;;;;;2.80;1.75;;;;;;;0.46;100.00;94199.78;5008415;28;20097;-43
2021/01/24 03:13:49;;;;;;;4.43;1.80;;;;;;;0.53;100.00;94201.84;4990804;28;20461;-45
2021/01/24 03:16:17;;;;;;;3.72;1.67;;;;;;;0.53;100.00;94200.06;5008223;28;20049;-45
2021/01/24 03:18:45;;;;;;;2.08;1.40;;;;;;;0.50;100.00;94207.28;5008000;28;20068;-45
2021/01/24 03:21:14;;;;;;;2.08;1.40;;;;;;;0.56;100.00;94207.56;5004690;28;20046;-45
2021/01/24 03:23:43;;;;;;;1.63;1.17;;;;;;;0.51;100.00;94201.94;4987811;28;20121;-46
2021/01/24 03:26:10;;;;;;;2.13;1.30;;;;;;;0.52;100.00;94221.75;5008300;28;20117;-46
2021/01/24 03:28:38;;;;;;;2.58;1.48;;;;;;;0.52;100.00;94215.72;4986274;28;20076;-45
2021/01/24 03:31:05;;;;;;;1.73;1.33;;;;;;;0.39;100.00;94219.44;4991612;28;20053;-45
2021/01/24 03:33:33;;;;;;;1.40;1.10;;;;;;;0.41;100.00;94227.06;4999088;28;20042;-48
2021/01/24 03:36:00;;;;;;;1.48;1.25;;;;;;;0.50;100.00;94226.25;5007101;28;20046;-48
2021/01/24 03:38:27;;;;;;;2.53;1.30;;;;;;;0.61;100.00;94233.06;5006322;28;20038;-46
2021/01/24 03:40:55;;;;;;;2.00;1.30;;;;;;;0.50;100.00;94235.81;5007618;28;20069;-45
2021/01/24 03:43:23;;;;;;;2.15;1.30;;;;;;;0.57;100.00;94239.47;5005646;28;20500;-45
2021/01/24 03:45:50;;;;;;;2.63;1.27;;;;;;;0.66;100.00;94233.47;4989841;28;20056;-45
2021/01/24 03:48:17;;;;;;;2.08;1.20;;;;;;;0.87;100.00;94239.28;5007244;28;20037;-45
2021/01/24 03:50:44;;;;;;;1.20;0.90;;;;;;;1.07;100.00;94237.47;5009224;28;20101;-46
2021/01/24 03:53:11;;;;;;;0.98;0.82;;;;;;;1.10;100.00;94233.75;4986709;28;20056;-45
2021/01/24 03:55:38;;;;;;;2.10;1.00;;;;;;;0.93;100.00;94237.91;5005377;28;20053;-47
2021/01/24 03:58:07;;;;;;;1.33;0.82;;;;;;;1.00;100.00;94241.59;5004130;28;20062;-47
2021/01/24 04:00:34;;;;;;;3.22;0.65;;;;;;;0.94;100.00;94239.53;4987545;28;20504;-46
2021/01/24 04:03:01;;;;;;;0.90;0.80;;;;;;;1.03;100.00;94238.69;5007305;28;20065;-44
2021/01/24 04:05:28;;;;;;;0.90;0.50;;;;;;;1.29;100.00;94238.06;5005307;28;20148;-48
2021/01/24 04:07:55;;;;;;;0.65;0.60;;;;;;;1.25;100.00;94242.72;5007996;28;20060;-45
2021/01/24 04:10:22;;;;;;;0.60;0.40;;;;;;;1.23;100.00;94247.22;4988227;28;20105;-45
2021/01/24 04:12:49;;;;;;;1.00;0.77;;;;;;;1.17;100.00;94240.84;5008636;28;20745;-44
2021/01/24 04:15:17;;;;;;;1.50;0.68;;;;;;;1.34;99.59;94244.47;5003774;28;20068;-45
2021/01/24 04:17:44;;;;;;;0.68;0.47;;;;;;;1.50;98.13;94245.63;5006753;28;20046;-46
2021/01/24 04:20:13;;;;;;;0.35;0.35;;;;;;;1.61;97.30;94248.81;5004991;28;20037;-46
2021/01/24 04:22:40;;;;;;;0.70;0.60;;;;;;;1.78;95.46;94249.03;5009207;28;20396;-45
2021/01/24 04:25:11;;;;;;;0.80;0.70;;;;;;;1.66;96.38;94251.00;4987656;28;20093;-47
2021/01/24 04:27:38;;;;;;;0.93;0.55;;;;;;;1.58;96.06;94261.28;5010783;28;20042;-44
2021/01/24 04:30:07;;;;;;;1.20;0.57;;;;;;;1.37;97.47;94251.94;5004996;28;20093;-46
2021/01/24 04:32:35;;;;;;;0.57;0.40;;;;;;;1.46;96.51;94250.28;5007676;28;20050;-45
2021/01/24 04:35:03;;;;;;;1.00;0.90;;;;;;;1.48;95.89;94258.75;5005454;28;20061;-45
2021/01/24 04:37:31;;;;;;;0.60;0.50;;;;;;;1.53;94.68;94255.72;5001018;28;20077;-47
2021/01/24 04:39:58;;;;;;;0.80;0.38;;;;;;;1.48;94.38;94270.91;5003691;28;20381;-45
2021/01/24 04:42:26;;;;;;;0.75;0.60;;;;;;;1.38;94.72;94278.75;5011677;28;20033;-46
2021/01/24 04:44:54;;;;;;;0.55;0.50;;;;;;;1.43;95.09;94268.75;5003830;28;20042;-50
2021/01/24 04:47:22;;;;;;;0.77;0.60;;;;;;;1.37;95.61;94280.50;4991244;28;20042;-46
2021/01/24 04:49:50;;;;;;;2.05;0.88;;;;;;;1.42;95.06;94293.91;5005995;28;20080;-45
2021/01/24 04:52:17;;;;;;;0.77;0.40;;;;;;;1.33;95.67;94292.13;4987791;28;20524;-46
2021/01/24 04:54:45;;;;;;;0.70;0.60;;;;;;;1.30;95.87;94297.63;4997561;28;20080;-46
2021/01/24 04:57:13;;;;;;;0.60;0.60;;;;;;;1.27;95.46;94304.88;4988058;28;20097;-45
2021/01/24 04:59:40;;;;;;;0.65;0.40;;;;;;;1.33;95.13;94297.34;5006451;28;20073;-48
2021/01/24 05:02:09;;;;;;;1.73;0.50;;;;;;;1.48;93.32;94310.69;5006142;28;20496;-46
2021/01/24 05:04:36;;;;;;;0.50;0.50;;;;;;;1.34;94.87;94313.72;4994438;28;20038;-48
2021/01/24 05:07:04;;;;;;;0.38;0.38;;;;;;;1.50;93.31;94303.56;5006055;28;20447;-46
2021/01/24 05:09:32;;;;;;;0.60;0.40;;;;;;;1.56;92.03;94315.16;5010648;28;20133;-48
2021/01/24 05:11:59;;;;;;;0.40;0.40;;;;;;;1.51;93.16;94323.38;4987332;28;20034;-46
2021/01/24 05:14:26;;;;;;;0.82;0.70;;;;;;;1.57;92.23;94319.41;5007021;28;20129;-46
2021/01/24 05:16:55;;;;;;;0.40;0.40;;;;;;;1.51;91.98;94330.34;5004622;28;20535;-48
2021/01/24 05:19:23;;;;;;;0.40;0.30;;;;;;;1.32;93.12;94336.44;5007651;28;20552;-46
2021/01/24 05:21:52;;;;;;;0.40;0.40;;;;;;;1.41;91.54;94339.00;4987740;28;20077;-47
2021/01/24 05:24:21;;;;;;;0.50;0.50;;;;;;;1.39;91.17;94342.69;5007379;28;20056;-48
2021/01/24 05:26:49;;;;;;;0.52;0.40;;;;;;;1.25;92.03;94350.94;4987748;28;20531;-46
2021/01/24 05:29:20;;;;;;;0.85;0.50;;;;;;;1.18;92.22;94348.88;5007029;28;20136;-48
2021/01/24 05:31:47;;;;;;;0.43;0.40;;;;;;;1.16;92.43;94361.19;5004011;28;20512;-47
2021/01/24 05:34:16;;;;;;;0.93;0.40;;;;;;;1.20;91.17;94361.72;5005761;28;20468;-47
2021/01/24 05:36:45;;;;;;;0.32;0.32;;;;;;;1.12;92.26;94375.41;5006582;28;20132;-47
2021/01/24 05:39:12;;;;;;;0.45;0.40;;;;;;;1.12;92.15;94374.59;5004175;28;20104;-46
2021/01/24 05:41:40;;;;;;;0.30;0.30;;;;;;;0.97;93.46;94366.41;5006451;28;20046;-46
2021/01/24 05:44:14;;;;;;;0.40;0.40;;;;;;;0.96;93.26;94388.09;5006146;28;20458;-50
2021/01/24 05:46:41;;;;;;;0.45;0.40;;;;;;;0.99;92.93;94381.81;5004975;28;20050;-47
2021/01/24 05:49:09;;;;;;;0.38;0.38;;;;;;;1.05;92.94;94399.44;5027261;23;20080;-50
2021/01/24 05:51:36;;;;;;;1.60;0.60;;;;;;;1.04;92.65;94400.41;5062688;28;20056;-49
2021/01/24 05:54:03;;;;;;;1.90;0.60;;;;;;;0.75;94.71;94415.97;5044193;28;20040;-51
2021/01/24 05:56:31;;;;;;;0.40;0.40;;;;;;;0.68;95.41;94407.91;5057854;28;20524;-50
2021/01/24 05:58:59;;;;;;;0.75;0.52;;;;;;;0.76;94.60;94413.25;5060090;28;20072;-48
2021/01/24 06:01:27;;;;;;;1.45;0.40;;;;;;;0.60;95.71;94426.72;5057152;28;20144;-50
2021/01/24 06:03:56;;;;;;;0.40;0.40;;;;;;;0.53;95.66;94437.78;5054945;28;20055;-50
2021/01/24 06:06:23;;;;;;;1.08;0.45;;;;;;;0.55;95.59;94438.44;5064853;28;20517;-51
2021/01/24 06:08:50;;;;;;;0.50;0.35;;;;;;;0.69;94.52;94448.47;5050452;28;20079;-48
2021/01/24 06:11:19;;;;;;;0.40;0.40;;;;;;;0.73;93.66;94446.41;5057411;28;20135;-48
2021/01/24 06:13:47;;;;;;;1.05;0.60;;;;;;;0.60;94.33;94459.63;5054722;28;20072;-53
2021/01/24 06:16:19;;;;;;;0.52;0.40;;;;;;;0.53;94.74;94459.34;5050833;28;20045;-56
2021/01/24 06:18:54;;;;;;;0.60;0.60;;;;;;;0.59;93.44;94471.78;5056649;28;20460;-51
2021/01/24 06:21:27;;;;;;;0.47;0.35;;;;;;;0.53;92.81;94474.06;5055118;28;20060;-54
2021/01/24 06:23:59;;;;;;;0.50;0.30;;;;;;;0.44;93.14;94484.28;5059332;28;20106;-53
2021/01/24 06:26:27;;;;;;;0.98;0.52;;;;;;;0.52;92.08;94473.25;5031019;28;20103;-47
2021/01/24 06:28:59;;;;;;;0.68;0.40;;;;;;;0.51;92.23;94481.16;5054303;28;20033;-48
2021/01/24 06:31:27;;;;;;;1.38;0.50;;;;;;;0.34;93.63;94491.19;5057274;28;20068;-50
2021/01/24 06:33:54;;;;;;;0.40;0.40;;;;;;;0.29;93.50;94482.19;5057502;28;20135;-49
2021/01/24 06:36:21;;;;;;;1.38;0.50;;;;;;;0.35;93.07;94486.84;5055403;28;20144;-48
2021/01/24 06:38:54;;;;;;;0.80;0.22;;;;;;;0.24;92.88;94487.75;5054246;28;20048;-54
2021/01/24 06:41:42;;;;;;;0.63;0.40;;;;;;;0.26;91.88;94500.59;5059430;28;20095;-50
2021/01/24 06:44:34;;;;;;;0.50;0.50;;;;;;;0.23;91.45;94499.88;5058168;28;20514;-48
2021/01/24 06:47:03;;;;;;;0.40;0.40;;;;;;;0.11;92.36;94511.31;5059556;28;20622;-48
2021/01/24 06:49:41;;;;;;;1.75;0.65;;;;;;;0.20;91.15;94518.28;5066171;28;20071;-52
2021/01/24 06:52:16;;;;;;;0.73;0.50;;;;;;;0.14;90.26;94505.88;5059966;28;20087;-48
2021/01/24 06:54:46;;;;;;;0.30;0.30;;;;;;;0.16;89.70;94540.22;5063321;28;20045;-49
2021/01/24 06:57:13;;;;;;;0.40;0.40;;;;;;;0.21;86.98;94530.31;5060128;28;20098;-49
2021/01/24 06:59:40;;;;;;;0.63;0.40;;;;;;;0.21;85.86;94545.88;5066679;28;20064;-50
2021/01/24 07:02:26;;;;;;;0.40;0.40;;;;;;;0.20;85.03;94553.75;5060604;28;20099;-48
2021/01/24 07:05:06;;;;;;;0.40;0.40;;;;;;;0.17;84.80;94561.78;5063027;28;20072;-52
2021/01/24 07:07:35;;;;;;;0.40;0.40;;;;;;;0.17;84.56;94562.63;5052603;28;20049;-52
2021/01/24 07:10:05;;;;;;;0.60;0.60;;;;;;;0.22;83.92;94560.47;5061363;28;20135;-49
2021/01/24 07:12:43;;;;;;;0.75;0.55;;;;;;;0.34;82.90;94558.59;5053684;28;20076;-50
2021/01/24 07:15:19;;;;;;;0.65;0.50;;;;;;;0.25;83.67;94563.75;5058630;28;20063;-50
2021/01/24 07:18:01;;;;;;;1.08;0.70;;;;;;;0.10;84.01;94571.84;5060413;28;20045;-50
2021/01/24 07:20:28;;;;;;;0.75;0.60;;;;;;;0.14;83.25;94572.44;5057400;28;20055;-51
2021/01/24 07:22:56;;;;;;;1.10;0.50;;;;;;;0.10;83.77;94582.19;5054280;28;20139;-51
2021/01/24 07:25:24;;;;;;;3.58;1.90;;;;;;;0.19;81.91;94576.25;5060388;28;20047;-49
2021/01/24 07:27:54;;;;;;;0.65;0.50;;;;;;;0.21;81.39;94583.94;5055998;28;20075;-52
2021/01/24 07:30:25;;;;;;;0.73;0.50;;;;;;;0.37;76.88;94575.66;5042600;28;20041;-51
2021/01/24 07:32:53;;;;;;;1.10;0.70;;;;;;;0.47;75.40;94546.25;5035928;28;20076;-47
2021/01/24 07:35:21;;;;;;;1.30;0.60;;;;;;;0.45;75.97;94570.69;5054823;28;20123;-48
2021/01/24 07:37:50;;;;;;;0.73;0.55;;;;;;;0.64;73.87;94581.09;5057973;28;20048;-49
2021/01/24 07:40:19;;;;;;;0.60;0.60;;;;;;;0.60;75.60;94591.88;5061087;28;20094;-50
2021/01/24 07:42:47;;;;;;;0.73;0.70;;;;;;;0.62;75.14;94596.00;5058929;28;20048;-48
2021/01/24 07:45:14;;;;;;;0.80;0.60;;;;;;;0.58;74.54;94583.41;5055708;28;20048;-49
2021/01/24 07:47:42;;;;;;;0.57;0.52;;;;;;;0.63;74.95;94600.22;5056949;28;20135;-52
2021/01/24 07:50:10;;;;;;;0.85;0.70;;;;;;;0.64;73.99;94591.47;5065996;28;20044;-48
2021/01/24 07:52:39;;;;;;;0.95;0.77;;;;;;;0.79;74.36;94602.34;5055603;28;20130;-49
2021/01/24 07:55:07;;;;;;;2.22;0.75;;;;;;;0.82;73.86;94614.22;5060464;28;20051;-48
2021/01/24 07:57:35;;;;;;;2.20;0.80;;;;;;;0.93;73.89;94619.31;5062623;28;21663;-50
2021/01/24 08:00:04;;;;;;;0.98;0.80;;;;;;;0.98;74.50;94618.91;5064555;28;20414;-53
2021/01/24 08:02:39;;;;;;;0.80;0.70;;;;;;;0.75;76.86;94626.06;5054551;28;20041;-48
2021/01/24 08:05:07;;;;;;;1.50;1.00;;;;;;;0.66;76.41;94620.72;5058834;28;20063;-53
2021/01/24 08:07:40;;;;;;;0.90;0.68;;;;;;;0.57;78.08;94626.66;5053698;28;20119;-46
2021/01/24 08:10:07;;;;;;;1.80;1.08;;;;;;;0.57;77.98;94623.25;5060575;28;20458;-52
2021/01/24 08:12:34;;;;;;;0.90;0.80;;;;;;;0.61;78.74;94635.81;5060942;28;20041;-52
2021/01/24 08:15:01;;;;;;;0.73;0.65;;;;;;;0.63;76.99;94636.53;5058291;28;20066;-50
2021/01/24 08:17:29;;;;;;;0.57;0.52;;;;;;;0.75;77.66;94628.66;5062760;28;20052;-50
2021/01/24 08:19:56;;;;;;;1.02;0.85;;;;;;;0.90;77.17;94638.56;5057372;28;20041;-50
2021/01/24 08:22:25;;;;;;;0.73;0.52;;;;;;;1.01;76.67;94642.00;5060712;28;20069;-53
2021/01/24 08:24:54;;;;;;;2.17;0.80;;;;;;;1.08;77.13;94645.72;5062263;28;20053;-53
2021/01/24 08:27:21;;;;;;;1.15;0.70;;;;;;;0.94;74.26;94637.34;5056845;28;20055;-47
2021/01/24 08:29:48;;;;;;;1.63;0.70;;;;;;;0.77;75.89;94645.75;5054474;28;20407;-51
2021/01/24 08:32:15;;;;;;;1.05;0.68;;;;;;;0.84;76.11;94646.03;5063961;28;20068;-50
2021/01/24 08:34:43;;;;;;;1.65;0.88;;;;;;;0.87;75.46;94651.78;5054688;28;20116;-52
2021/01/24 08:37:10;;;;;;;0.93;0.77;;;;;;;0.68;76.89;94655.09;5057355;28;20473;-53
2021/01/24 08:39:37;;;;;;;1.42;0.80;;;;;;;0.58;76.10;94656.81;5059485;28;20094;-52
2021/01/24 08:42:06;;;;;;;1.25;0.95;;;;;;;0.61;76.41;94648.78;5063584;28;20106;-50
2021/01/24 08:44:33;;;;;;;1.27;0.60;;;;;;;0.83;75.36;94647.00;5051322;28;20471;-49
2021/01/24 08:47:04;;;;;;;1.20;0.60;;;;;;;0.94;76.39;94672.84;5058044;28;20048;-52
2021/01/24 08:49:31;;;;;;;0.40;0.40;;;;;;;0.96;76.41;94663.16;5059185;28;20060;-49
2021/01/24 08:51:59;;;;;;;1.38;0.75;;;;;;;1.08;75.70;94674.28;5058091;28;20047;-51
2021/01/24 08:54:29;;;;;;;1.25;0.80;;;;;;;1.13;76.52;94672.91;5067123;28;20562;-49
2021/01/24 08:57:09;;;;;;;1.00;0.55;;;;;;;1.27;76.21;94679.50;5059886;28;20051;-51
2021/01/24 08:59:57;;;;;;;1.13;0.82;;;;;;;1.48;77.91;94682.06;5053042;28;20048;-54
2021/01/24 09:02:28;;;;;;;1.52;1.00;;;;;;;1.72;77.68;94683.44;5055440;28;20079;-49
2021/01/24 09:04:55;;;;;;;1.08;0.77;;;;;;;1.34;77.44;94683.25;5058721;28;20067;-48
2021/01/24 09:07:22;;;;;;;1.15;0.75;;;;;;;0.98;79.82;94692.41;5054799;28;20059;-51
2021/01/24 09:09:52;;;;;;;0.93;0.80;;;;;;;0.99;79.42;94685.44;5064486;28;20549;-50
2021/01/24 09:12:20;;;;;;;1.70;0.90;;;;;;;1.24;79.25;94689.34;5053139;28;20139;-49
2021/01/24 09:14:48;;;;;;;0.65;0.52;;;;;;;1.29;78.24;94685.41;5054896;28;20474;-48
2021/01/24 09:17:16;;;;;;;0.80;0.70;;;;;;;1.14;75.42;94686.75;5048941;28;20140;-50
2021/01/24 09:19:44;;;;;;;2.10;0.90;;;;;;;0.90;75.04;94689.63;5048128;28;20045;-53
2021/01/24 09:22:13;;;;;;;0.95;0.70;;;;;;;0.87;75.37;94690.72;5044948;28;20594;-49
2021/01/24 09:24:40;;;;;;;1.70;0.90;;;;;;;0.74;71.74;94674.53;5054573;28;20119;-50
2021/01/24 09:27:09;;;;;;;1.92;1.02;;;;;;;1.05;72.82;94695.31;5051866;28;20098;-49
2021/01/24 09:29:38;;;;;;;0.93;0.80;;;;;;;1.14;69.84;94699.72;5050826;28;20466;-50
2021/01/24 09:32:06;;;;;;;1.23;0.73;;;;;;;1.30;70.99;94699.22;5052613;28;20048;-53
2021/01/24 09:34:33;;;;;;;1.45;0.70;;;;;;;1.31;72.08;94709.47;5057478;28;20536;-54
2021/01/24 09:37:00;;;;;;;3.13;1.30;;;;;;;1.24;71.28;94702.31;5057974;28;20525;-52
2021/01/24 09:39:27;;;;;;;1.45;1.00;;;;;;;1.34;72.37;94703.19;5054453;28;20481;-53
2021/01/24 09:41:54;;;;;;;1.30;0.80;;;;;;;1.46;70.77;94730.69;5044932;28;20114;-51
2021/01/24 09:44:22;;;;;;;1.17;0.70;;;;;;;1.80;69.83;94715.63;5052274;28;20052;-55
2021/01/24 09:46:49;;;;;;;1.10;0.90;;;;;;;1.86;69.14;94711.66;5053549;28;20084;-53
2021/01/24 09:49:16;;;;;;;1.42;0.90;;;;;;;1.69;67.40;94707.94;5047268;28;20037;-49
2021/01/24 09:51:43;;;;;;;2.00;0.88;;;;;;;1.71;67.71;94718.19;5054913;28;20075;-50
2021/01/24 09:54:10;;;;;;;2.70;1.10;;;;;;;1.70;65.79;94729.53;5046145;28;20033;-52
2021/01/24 09:56:37;;;;;;;1.40;0.70;;;;;;;1.60;66.84;94721.72;5057990;28;20048;-54
2021/01/24 09:59:04;;;;;;;1.67;1.20;;;;;;;1.80;66.83;94736.41;5044836;28;20048;-53
2021/01/24 10:01:33;;;;;;;1.42;0.70;;;;;;;1.63;66.65;94732.66;5054614;28;20044;-53
2021/01/24 10:04:01;;;;;;;1.00;0.85;;;;;;;1.55;65.48;94727.31;5055358;28;20079;-51
2021/01/24 10:06:28;;;;;;;1.33;0.90;;;;;;;1.48;65.25;94740.94;5056798;28;20460;-51
2021/01/24 10:08:55;;;;;;;0.90;0.70;;;;;;;1.53;66.98;94746.59;5051331;28;20048;-54
2021/01/24 10:11:23;;;;;;;1.98;1.15;;;;;;;1.63;64.46;94745.66;5059051;28;20125;-54
2021/01/24 10:13:50;;;;;;;2.53;0.90;;;;;;;1.75;63.06;94740.34;5048659;28;20090;-53
2021/01/24 10:16:16;;;;;;;0.80;0.75;;;;;;;2.08;63.02;94749.59;5057158;28;20103;-50
2021/01/24 10:18:44;;;;;;;1.73;1.13;;;;;;;2.18;62.53;94744.41;5056626;28;20054;-53
2021/01/24 10:21:11;;;;;;;1.70;1.23;;;;;;;2.24;61.96;94751.66;5058996;28;20102;-56
2021/01/24 10:23:39;;;;;;;1.40;1.02;;;;;;;1.75;62.75;94743.75;5051939;28;20124;-53
2021/01/24 10:26:06;;;;;;;1.67;0.90;;;;;;;2.40;61.84;94751.91;5055766;28;20048;-53
2021/01/24 10:28:33;;;;;;;2.00;1.00;;;;;;;2.18;59.79;94750.41;5053473;28;20037;-56
2021/01/24 10:31:00;;;;;;;1.17;0.80;;;;;;;2.22;60.51;94749.19;5056860;28;20106;-51
2021/01/24 10:33:27;;;;;;;2.05;1.10;;;;;;;2.10;61.05;94753.69;5057881;28;20052;-52
2021/01/24 10:35:54;;;;;;;1.17;1.02;;;;;;;2.25;59.86;94735.91;5061962;28;20052;-52
2021/01/24 10:38:22;;;;;;;1.30;0.85;;;;;;;1.88;60.52;94749.53;5058357;28;20048;-49
2021/01/24 10:40:49;;;;;;;1.67;1.13;;;;;;;2.21;60.44;94751.94;5049842;28;20083;-56
2021/01/24 10:43:16;;;;;;;2.38;1.33;;;;;;;2.12;60.32;94759.56;5055577;28;20124;-53
2021/01/24 10:45:43;;;;;;;2.08;1.13;;;;;;;1.95;60.69;94743.81;5052522;28;20040;-53
2021/01/24 10:48:11;;;;;;;1.77;1.08;;;;;;;2.50;61.26;94744.13;5050777;28;20556;-56
2021/01/24 10:50:39;;;;;;;1.10;0.90;;;;;;;2.74;59.29;94735.88;5055523;28;20048;-54
2021/01/24 10:53:07;;;;;;;1.90;1.00;;;;;;;2.80;57.99;94733.53;5058791;28;20518;-54
2021/01/24 10:55:35;;;;;;;3.95;1.38;;;;;;;2.57;57.67;94721.78;5054144;28;20214;-52
2021/01/24 10:58:03;;;;;;;1.92;0.75;;;;;;;2.85;59.74;94756.53;5056179;28;20593;-53
2021/01/24 11:00:30;;;;;;;1.20;0.77;;;;;;;2.64;57.03;94735.88;5063067;28;20123;-56
2021/01/24 11:02:57;;;;;;;1.10;0.85;;;;;;;2.59;58.60;94748.50;5062015;28;20128;-56
2021/01/24 11:05:24;;;;;;;1.83;0.93;;;;;;;2.32;58.25;94746.59;5049640;28;20049;-56
2021/01/24 11:07:52;;;;;;;1.52;0.85;;;;;;;2.18;59.58;94715.78;5056913;28;20392;-54
2021/01/24 11:10:19;;;;;;;1.35;0.73;;;;;;;2.01;58.88;94744.09;5051848;28;20049;-54
2021/01/24 11:12:47;;;;;;;2.63;1.33;;;;;;;1.94;59.28;94734.38;5061830;28;20041;-54
2021/01/24 11:15:14;;;;;;;1.33;0.90;;;;;;;1.89;62.24;94755.56;5046876;28;21395;-53
2021/01/24 11:17:41;;;;;;;1.25;0.90;;;;;;;1.77;60.27;94744.47;5052916;28;20521;-52
2021/01/24 11:20:10;;;;;;;1.90;1.00;;;;;;;1.91;62.00;94753.66;5052252;28;20121;-51
2021/01/24 11:22:37;;;;;;;1.23;0.80;;;;;;;1.91;61.16;94743.25;5059333;28;20418;-55
2021/01/24 11:25:04;;;;;;;2.45;0.98;;;;;;;2.12;60.36;94737.94;5055897;28;20143;-52
2021/01/24 11:27:32;;;;;;;1.40;1.08;;;;;;;1.95;59.98;94752.44;5051978;28;20454;-56
2021/01/24 11:29:59;;;;;;;2.47;1.27;;;;;;;1.81;61.64;94755.41;5041308;28;20575;-57
2021/01/24 11:32:26;;;;;;;1.05;0.80;;;;;;;1.84;61.77;94755.16;5047372;28;20049;-54
2021/01/24 11:35:08;;;;;;;2.25;1.20;;;;;;;1.57;60.15;94738.38;5057057;28;20047;-52
2021/01/24 11:37:36;;;;;;;2.00;1.10;;;;;;;1.53;60.25;94749.19;5060578;28;20056;-52
2021/01/24 11:40:04;;;;;;;2.67;1.20;;;;;;;1.73;59.58;94737.91;5060230;28;20593;-55